createdAt,value
2018-05-31T00:00:30.337Z,0
2018-05-31T00:01:31.070Z,0
2018-05-31T00:02:31.800Z,0
2018-05-31T00:03:32.528Z,0
2018-05-31T00:04:33.249Z,0
2018-05-31T00:05:33.978Z,0
2018-05-31T00:06:34.699Z,0
2018-05-31T00:07:35.419Z,0
2018-05-31T00:08:36.138Z,0
2018-05-31T00:09:36.858Z,0
2018-05-31T00:10:37.578Z,0
2018-05-31T00:11:38.315Z,0
2018-05-31T00:12:39.031Z,0
2018-05-31T00:13:39.752Z,0
2018-05-31T00:15:41.099Z,0
2018-05-31T00:16:41.816Z,0
2018-05-31T00:17:42.538Z,0
2018-05-31T00:18:43.258Z,0
2018-05-31T00:19:43.985Z,0
2018-05-31T00:20:44.714Z,0
2018-05-31T00:21:45.433Z,0
2018-05-31T00:22:46.153Z,0
2018-05-31T00:23:46.875Z,0
2018-05-31T00:24:47.592Z,0
2018-05-31T00:25:48.313Z,0
2018-05-31T00:26:49.031Z,0
2018-05-31T00:27:49.751Z,0
2018-05-31T00:28:50.469Z,0
2018-05-31T00:29:51.189Z,0
2018-05-31T00:30:51.920Z,0
2018-05-31T00:31:52.639Z,0
2018-05-31T00:32:53.358Z,0
2018-05-31T00:33:54.088Z,0
2018-05-31T00:34:54.807Z,0
2018-05-31T00:35:55.524Z,0
2018-05-31T00:36:56.251Z,0
2018-05-31T00:37:56.974Z,0
2018-05-31T00:38:57.692Z,0
2018-05-31T00:39:58.414Z,0
2018-05-31T00:40:59.138Z,0
2018-05-31T00:41:59.855Z,0
2018-05-31T00:43:00.571Z,0
2018-05-31T00:44:01.294Z,0
2018-05-31T00:45:02.009Z,0
2018-05-31T00:46:02.726Z,0
2018-05-31T00:47:03.443Z,0
2018-05-31T00:48:04.173Z,0
2018-05-31T00:49:04.895Z,0
2018-05-31T00:50:05.627Z,0
2018-05-31T00:51:06.348Z,0
2018-05-31T00:52:07.068Z,0
2018-05-31T00:53:07.784Z,0
2018-05-31T00:54:08.505Z,0
2018-05-31T00:55:09.224Z,0
2018-05-31T00:56:09.941Z,0
2018-05-31T00:57:10.656Z,0
2018-05-31T00:58:11.375Z,0
2018-05-31T00:59:12.090Z,0
2018-05-31T01:00:12.806Z,0
2018-05-31T01:01:13.521Z,0
2018-05-31T01:02:14.238Z,0
2018-05-31T01:03:14.955Z,0
2018-05-31T01:04:15.671Z,0
2018-05-31T01:05:16.387Z,0
2018-05-31T01:06:17.102Z,0
2018-05-31T01:07:17.829Z,0
2018-05-31T01:08:18.555Z,0
2018-05-31T01:09:19.272Z,0
2018-05-31T01:10:19.990Z,0
2018-05-31T01:11:20.708Z,0
2018-05-31T01:12:21.425Z,0
2018-05-31T01:13:22.140Z,0
2018-05-31T01:14:22.857Z,0
2018-05-31T01:15:23.586Z,0
2018-05-31T01:16:24.304Z,0
2018-05-31T01:17:25.032Z,0
2018-05-31T01:18:25.754Z,0
2018-05-31T01:19:26.465Z,0
2018-05-31T01:20:27.183Z,0
2018-05-31T01:21:27.899Z,0
2018-05-31T01:22:28.612Z,0
2018-05-31T01:23:29.330Z,0
2018-05-31T01:24:30.064Z,0
2018-05-31T01:25:30.783Z,0
2018-05-31T01:26:31.500Z,0
2018-05-31T01:27:32.218Z,0
2018-05-31T01:28:32.942Z,0
2018-05-31T01:29:33.660Z,0
2018-05-31T01:30:34.373Z,0
2018-05-31T01:31:35.089Z,0
2018-05-31T01:32:35.805Z,0
2018-05-31T01:33:36.531Z,0
2018-05-31T01:34:37.248Z,0
2018-05-31T01:35:37.979Z,0
2018-05-31T01:36:38.699Z,0
2018-05-31T01:37:39.418Z,0
2018-05-31T01:38:40.132Z,0
2018-05-31T01:39:40.849Z,0
2018-05-31T01:40:41.568Z,0
2018-05-31T01:41:42.300Z,0
2018-05-31T01:42:43.023Z,0
2018-05-31T01:43:43.738Z,0
2018-05-31T01:44:44.465Z,0
2018-05-31T01:45:45.196Z,0
2018-05-31T01:46:45.911Z,0
2018-05-31T01:47:46.637Z,0
2018-05-31T01:48:47.361Z,0
2018-05-31T01:49:48.078Z,0
2018-05-31T01:50:48.793Z,0
2018-05-31T01:51:49.509Z,0
2018-05-31T01:52:50.225Z,0
2018-05-31T01:53:50.940Z,0
2018-05-31T01:54:51.668Z,0
2018-05-31T01:55:52.384Z,0
2018-05-31T01:56:53.099Z,0
2018-05-31T01:57:53.829Z,0
2018-05-31T01:58:54.544Z,0
2018-05-31T01:59:55.266Z,0
2018-05-31T02:00:55.995Z,0
2018-05-31T02:01:56.708Z,0
2018-05-31T02:02:57.425Z,0
2018-05-31T02:03:58.139Z,0
2018-05-31T02:04:58.855Z,0
2018-05-31T02:05:59.570Z,0
2018-05-31T02:07:00.297Z,0
2018-05-31T02:08:01.013Z,0
2018-05-31T02:09:01.742Z,0
2018-05-31T02:10:02.468Z,0
2018-05-31T02:11:03.198Z,0
2018-05-31T02:12:03.926Z,0
2018-05-31T02:13:04.643Z,0
2018-05-31T02:14:05.370Z,0
2018-05-31T02:15:06.086Z,0
2018-05-31T02:16:06.803Z,0
2018-05-31T02:17:07.529Z,0
2018-05-31T02:18:08.243Z,0
2018-05-31T02:19:08.958Z,0
2018-05-31T02:20:09.674Z,0
2018-05-31T02:21:10.391Z,0
2018-05-31T02:22:11.105Z,0
2018-05-31T02:23:11.822Z,0
2018-05-31T02:24:12.548Z,0
2018-05-31T02:25:13.277Z,0
2018-05-31T02:26:13.994Z,0
2018-05-31T02:27:14.710Z,0
2018-05-31T02:28:15.437Z,0
2018-05-31T02:29:16.152Z,0
2018-05-31T02:30:16.866Z,0
2018-05-31T02:31:17.583Z,0
2018-05-31T02:32:18.298Z,0
2018-05-31T02:33:19.012Z,0
2018-05-31T02:34:19.738Z,0
2018-05-31T02:35:20.454Z,0
2018-05-31T02:36:21.172Z,0
2018-05-31T02:37:21.898Z,0
2018-05-31T02:38:22.627Z,4
2018-05-31T02:39:23.342Z,4
2018-05-31T02:40:24.061Z,4
2018-05-31T02:41:24.785Z,0
2018-05-31T02:42:25.501Z,0
2018-05-31T02:43:26.217Z,4
2018-05-31T02:44:26.945Z,4
2018-05-31T02:45:27.657Z,4
2018-05-31T02:46:28.375Z,4
2018-05-31T02:47:29.091Z,8
2018-05-31T02:48:29.806Z,4
2018-05-31T02:49:30.523Z,8
2018-05-31T02:50:31.238Z,8
2018-05-31T02:51:31.954Z,8
2018-05-31T02:52:32.670Z,12
2018-05-31T02:53:33.387Z,12
2018-05-31T02:54:34.103Z,12
2018-05-31T02:55:34.819Z,12
2018-05-31T02:56:35.552Z,16
2018-05-31T02:57:36.279Z,20
2018-05-31T02:58:36.993Z,20
2018-05-31T02:59:37.710Z,24
2018-05-31T03:00:38.427Z,24
2018-05-31T03:01:39.144Z,28
2018-05-31T03:02:39.862Z,36
2018-05-31T03:03:40.593Z,36
2018-05-31T03:04:41.306Z,40
2018-05-31T03:05:42.023Z,44
2018-05-31T03:06:42.739Z,52
2018-05-31T03:07:43.455Z,56
2018-05-31T03:08:44.186Z,64
2018-05-31T03:09:44.902Z,68
2018-05-31T03:10:45.617Z,72
2018-05-31T03:11:46.333Z,76
2018-05-31T03:12:47.048Z,84
2018-05-31T03:13:47.774Z,92
2018-05-31T03:14:48.506Z,100
2018-05-31T03:15:49.222Z,108
2018-05-31T03:16:49.937Z,116
2018-05-31T03:17:50.672Z,128
2018-05-31T03:18:51.385Z,132
2018-05-31T03:19:52.101Z,144
2018-05-31T03:20:52.817Z,156
2018-05-31T03:21:53.535Z,168
2018-05-31T03:22:54.264Z,176
2018-05-31T03:23:54.982Z,188
2018-05-31T03:24:55.699Z,200
2018-05-31T03:25:56.421Z,220
2018-05-31T03:26:57.134Z,232
2018-05-31T03:27:57.850Z,248
2018-05-31T03:28:58.570Z,264
2018-05-31T03:29:59.292Z,280
2018-05-31T03:31:00.014Z,300
2018-05-31T03:32:00.731Z,316
2018-05-31T03:33:01.448Z,332
2018-05-31T03:34:02.167Z,348
2018-05-31T03:35:02.883Z,364
2018-05-31T03:36:03.612Z,384
2018-05-31T03:37:04.330Z,400
2018-05-31T03:38:05.063Z,420
2018-05-31T03:39:05.791Z,444
2018-05-31T03:40:06.513Z,460
2018-05-31T03:41:07.237Z,484
2018-05-31T03:42:07.955Z,504
2018-05-31T03:43:08.671Z,524
2018-05-31T03:44:09.403Z,540
2018-05-31T03:45:10.130Z,560
2018-05-31T03:46:10.860Z,580
2018-05-31T03:47:11.584Z,600
2018-05-31T03:48:12.301Z,624
2018-05-31T03:49:13.021Z,640
2018-05-31T03:50:13.741Z,660
2018-05-31T03:51:14.466Z,676
2018-05-31T03:52:15.183Z,692
2018-05-31T03:53:15.913Z,708
2018-05-31T03:54:16.630Z,724
2018-05-31T03:55:17.352Z,740
2018-05-31T03:56:18.072Z,752
2018-05-31T03:57:18.799Z,772
2018-05-31T03:58:19.520Z,788
2018-05-31T03:59:20.250Z,808
2018-05-31T04:00:20.968Z,824
2018-05-31T04:01:21.695Z,848
2018-05-31T04:02:22.413Z,868
2018-05-31T04:03:23.131Z,884
2018-05-31T04:04:23.848Z,916
2018-05-31T04:05:24.565Z,944
2018-05-31T04:06:25.284Z,972
2018-05-31T04:07:26.004Z,1008
2018-05-31T04:08:26.725Z,1036
2018-05-31T04:09:27.449Z,1072
2018-05-31T04:10:28.167Z,1112
2018-05-31T04:11:28.889Z,1152
2018-05-31T04:12:29.610Z,1192
2018-05-31T04:13:30.331Z,1240
2018-05-31T04:14:31.048Z,1284
2018-05-31T04:15:31.767Z,1328
2018-05-31T04:16:32.487Z,1372
2018-05-31T04:17:33.209Z,1416
2018-05-31T04:18:33.929Z,1460
2018-05-31T04:19:34.648Z,1504
2018-05-31T04:20:35.370Z,1548
2018-05-31T04:21:36.093Z,1592
2018-05-31T04:22:36.813Z,1632
2018-05-31T04:23:37.532Z,1668
2018-05-31T04:24:38.253Z,1700
2018-05-31T04:25:38.976Z,1732
2018-05-31T04:26:39.693Z,1760
2018-05-31T04:27:40.412Z,1788
2018-05-31T04:28:41.137Z,1808
2018-05-31T04:29:41.861Z,1836
2018-05-31T04:30:42.592Z,1876
2018-05-31T04:31:43.313Z,1912
2018-05-31T04:32:44.045Z,1944
2018-05-31T04:33:44.805Z,1976
2018-05-31T04:34:45.495Z,2012
2018-05-31T04:35:46.211Z,2048
2018-05-31T04:36:46.930Z,2088
2018-05-31T04:37:47.652Z,2136
2018-05-31T04:38:48.387Z,2192
2018-05-31T04:39:49.109Z,2276
2018-05-31T04:40:49.829Z,2376
2018-05-31T04:41:50.550Z,2460
2018-05-31T04:42:51.269Z,2504
2018-05-31T04:43:51.991Z,2528
2018-05-31T04:44:52.724Z,2516
2018-05-31T04:45:53.448Z,2504
2018-05-31T04:46:54.168Z,2492
2018-05-31T04:47:54.901Z,2492
2018-05-31T04:48:55.636Z,2476
2018-05-31T04:49:56.369Z,2460
2018-05-31T04:50:57.088Z,2448
2018-05-31T04:51:57.817Z,2464
2018-05-31T04:52:58.537Z,2492
2018-05-31T04:53:59.261Z,2524
2018-05-31T04:54:59.992Z,2600
2018-05-31T04:56:00.713Z,2756
2018-05-31T04:57:01.436Z,2872
2018-05-31T04:58:02.156Z,2912
2018-05-31T04:59:02.876Z,2968
2018-05-31T05:00:03.602Z,3040
2018-05-31T05:01:04.324Z,3092
2018-05-31T05:02:05.045Z,3140
2018-05-31T05:03:05.871Z,3224
2018-05-31T05:04:06.501Z,3292
2018-05-31T05:05:07.225Z,3296
2018-05-31T05:06:07.949Z,3316
2018-05-31T05:07:08.681Z,3300
2018-05-31T05:08:09.413Z,3296
2018-05-31T05:09:10.137Z,3304
2018-05-31T05:10:10.858Z,3336
2018-05-31T05:11:11.580Z,3452
2018-05-31T05:12:12.301Z,3656
2018-05-31T05:13:13.023Z,3916
2018-05-31T05:14:13.755Z,4240
2018-05-31T05:15:14.481Z,4624
2018-05-31T05:16:15.205Z,4940
2018-05-31T05:17:15.928Z,5112
2018-05-31T05:18:16.664Z,5236
2018-05-31T05:19:17.389Z,5328
2018-05-31T05:20:18.153Z,5432
2018-05-31T05:21:18.837Z,5636
2018-05-31T05:22:19.562Z,5720
2018-05-31T05:23:20.288Z,5740
2018-05-31T05:24:21.012Z,5712
2018-05-31T05:25:21.741Z,5652
2018-05-31T05:26:22.474Z,5620
2018-05-31T05:27:23.196Z,5584
2018-05-31T05:28:23.928Z,5532
2018-05-31T05:29:24.659Z,5472
2018-05-31T05:30:25.395Z,5360
2018-05-31T05:31:26.124Z,5264
2018-05-31T05:32:26.869Z,5164
2018-05-31T05:33:27.584Z,5060
2018-05-31T05:34:28.322Z,4968
2018-05-31T05:35:29.048Z,4952
2018-05-31T05:36:29.775Z,5008
2018-05-31T05:37:30.511Z,5096
2018-05-31T05:38:31.238Z,5200
2018-05-31T05:39:31.967Z,5332
2018-05-31T05:40:32.693Z,5424
2018-05-31T05:41:33.419Z,5460
2018-05-31T05:42:34.150Z,5500
2018-05-31T05:43:34.884Z,5556
2018-05-31T05:44:35.599Z,5624
2018-05-31T05:45:36.325Z,5624
2018-05-31T05:46:37.065Z,5568
2018-05-31T05:47:37.790Z,5472
2018-05-31T05:48:38.517Z,5348
2018-05-31T05:49:39.246Z,5236
2018-05-31T05:50:39.973Z,5176
2018-05-31T05:51:40.700Z,5156
2018-05-31T05:52:41.426Z,5216
2018-05-31T05:53:42.154Z,5308
2018-05-31T05:54:42.884Z,5428
2018-05-31T05:55:43.612Z,5556
2018-05-31T05:56:44.338Z,5664
2018-05-31T05:57:45.073Z,5760
2018-05-31T05:58:45.795Z,5872
2018-05-31T05:59:46.523Z,5996
2018-05-31T06:00:47.251Z,6144
2018-05-31T06:01:48.016Z,6236
2018-05-31T06:02:48.708Z,6324
2018-05-31T06:03:49.436Z,6380
2018-05-31T06:04:50.176Z,6352
2018-05-31T06:05:50.912Z,6260
2018-05-31T06:06:51.641Z,6128
2018-05-31T06:07:52.380Z,6028
2018-05-31T06:08:53.106Z,5944
2018-05-31T06:09:53.878Z,5940
2018-05-31T06:10:54.558Z,5964
2018-05-31T06:11:55.285Z,6024
2018-05-31T06:12:56.013Z,6064
2018-05-31T06:13:56.753Z,6108
2018-05-31T06:14:57.479Z,6156
2018-05-31T06:15:58.205Z,6228
2018-05-31T06:16:58.946Z,6284
2018-05-31T06:17:59.674Z,6364
2018-05-31T06:19:00.413Z,6408
2018-05-31T06:20:01.146Z,6400
2018-05-31T06:21:01.865Z,6436
2018-05-31T06:22:02.591Z,6492
2018-05-31T06:23:03.320Z,6616
2018-05-31T06:24:04.063Z,6696
2018-05-31T06:25:04.789Z,6720
2018-05-31T06:26:05.532Z,6916
2018-05-31T06:27:06.260Z,7036
2018-05-31T06:28:06.988Z,7144
2018-05-31T06:29:07.728Z,7236
2018-05-31T06:30:08.456Z,7264
2018-05-31T06:31:09.185Z,7284
2018-05-31T06:32:09.914Z,7464
2018-05-31T06:33:10.640Z,7516
2018-05-31T06:34:11.370Z,7552
2018-05-31T06:35:12.096Z,7564
2018-05-31T06:36:12.822Z,7604
2018-05-31T06:37:13.590Z,7660
2018-05-31T06:38:14.276Z,7636
2018-05-31T06:39:15.006Z,7576
2018-05-31T06:40:15.733Z,7552
2018-05-31T06:41:16.458Z,7516
2018-05-31T06:42:17.188Z,7560
2018-05-31T06:43:17.915Z,7700
2018-05-31T06:44:18.654Z,7732
2018-05-31T06:45:19.381Z,7692
2018-05-31T06:46:20.105Z,7700
2018-05-31T06:47:20.833Z,7836
2018-05-31T06:48:21.576Z,7896
2018-05-31T06:49:22.298Z,7872
2018-05-31T06:50:23.025Z,7924
2018-05-31T06:51:23.755Z,8008
2018-05-31T06:52:24.483Z,8100
2018-05-31T06:53:25.225Z,8164
2018-05-31T06:54:26.010Z,8264
2018-05-31T06:55:26.681Z,8336
2018-05-31T06:56:27.409Z,8472
2018-05-31T06:57:28.137Z,8600
2018-05-31T06:58:28.861Z,8660
2018-05-31T06:59:29.590Z,8696
2018-05-31T07:00:30.321Z,8724
2018-05-31T07:01:31.061Z,8748
2018-05-31T07:02:31.787Z,8700
2018-05-31T07:03:32.512Z,8692
2018-05-31T07:04:33.247Z,8716
2018-05-31T07:05:33.971Z,8668
2018-05-31T07:06:34.698Z,8604
2018-05-31T07:07:35.427Z,8540
2018-05-31T07:08:36.156Z,8580
2018-05-31T07:09:36.887Z,8676
2018-05-31T07:10:37.622Z,8568
2018-05-31T07:11:38.345Z,8620
2018-05-31T07:12:39.073Z,8596
2018-05-31T07:13:39.803Z,8700
2018-05-31T07:14:40.531Z,8772
2018-05-31T07:15:41.265Z,8804
2018-05-31T07:16:42.001Z,8880
2018-05-31T07:17:42.734Z,8924
2018-05-31T07:18:43.464Z,8924
2018-05-31T07:19:44.195Z,8860
2018-05-31T07:20:44.926Z,8940
2018-05-31T07:21:45.657Z,9164
2018-05-31T07:22:46.379Z,9280
2018-05-31T07:23:47.107Z,9344
2018-05-31T07:24:47.834Z,9380
2018-05-31T07:25:48.557Z,9424
2018-05-31T07:26:49.281Z,9496
2018-05-31T07:27:50.009Z,9608
2018-05-31T07:28:50.739Z,9664
2018-05-31T07:29:51.463Z,9720
2018-05-31T07:30:52.195Z,10008
2018-05-31T07:31:52.932Z,10220
2018-05-31T07:32:53.659Z,10380
2018-05-31T07:33:54.386Z,10512
2018-05-31T07:34:55.117Z,10740
2018-05-31T07:35:55.841Z,10964
2018-05-31T07:36:56.568Z,11200
2018-05-31T07:37:57.298Z,11540
2018-05-31T07:38:58.024Z,12256
2018-05-31T07:39:58.751Z,12808
2018-05-31T07:40:59.484Z,17184
2018-05-31T07:42:00.209Z,25280
2018-05-31T07:43:00.936Z,35424
2018-05-31T07:45:03.396Z,45696
2018-05-31T07:46:04.174Z,45888
2018-05-31T07:47:04.876Z,46592
2018-05-31T07:48:05.606Z,46016
2018-05-31T07:49:07.549Z,47616
2018-05-31T07:50:08.281Z,51776
2018-05-31T07:51:09.014Z,55200
2018-05-31T07:52:09.746Z,58496
2018-05-31T07:53:10.483Z,60608
2018-05-31T07:54:11.217Z,60832
2018-05-31T07:55:11.948Z,60800
2018-05-31T07:56:12.689Z,64448
2018-05-31T07:57:13.420Z,67392
2018-05-31T07:58:14.193Z,67040
2018-05-31T07:59:14.896Z,67904
2018-05-31T08:00:15.627Z,60288
2018-05-31T08:01:16.369Z,58976
2018-05-31T08:02:17.113Z,54080
2018-05-31T08:03:17.844Z,49376
2018-05-31T08:04:18.574Z,38496
2018-05-31T08:05:19.308Z,43232
2018-05-31T08:06:20.040Z,36064
2018-05-31T08:07:20.779Z,34464
2018-05-31T08:08:21.522Z,43424
2018-05-31T08:09:22.254Z,43072
2018-05-31T08:10:22.985Z,47808
2018-05-31T08:11:23.719Z,44960
2018-05-31T08:12:24.450Z,40256
2018-05-31T08:13:25.180Z,41568
2018-05-31T08:14:25.924Z,38304
2018-05-31T08:15:26.672Z,26656
2018-05-31T08:16:27.404Z,19168
2018-05-31T08:17:28.134Z,17312
2018-05-31T08:18:28.880Z,16308
2018-05-31T08:19:29.615Z,15844
2018-05-31T08:20:30.348Z,15360
2018-05-31T08:21:31.084Z,14920
2018-05-31T08:22:31.815Z,14656
2018-05-31T08:23:32.562Z,14568
2018-05-31T08:24:33.297Z,14612
2018-05-31T08:25:34.040Z,14660
2018-05-31T08:26:34.775Z,15052
2018-05-31T08:27:35.526Z,15340
2018-05-31T08:28:36.280Z,15572
2018-05-31T08:29:37.017Z,15748
2018-05-31T08:30:37.760Z,15960
2018-05-31T08:31:38.562Z,16212
2018-05-31T08:32:39.235Z,16484
2018-05-31T08:33:39.973Z,16916
2018-05-31T08:34:40.715Z,18432
2018-05-31T08:35:41.461Z,22464
2018-05-31T08:36:42.214Z,39968
2018-05-31T08:37:42.959Z,62304
2018-05-31T08:38:43.722Z,65120
2018-05-31T08:39:44.459Z,67840
2018-05-31T08:40:45.207Z,68576
2018-05-31T08:41:45.948Z,69120
2018-05-31T08:42:46.690Z,72000
2018-05-31T08:43:47.434Z,73696
2018-05-31T08:44:48.177Z,75744
2018-05-31T08:45:48.919Z,78208
2018-05-31T08:46:49.664Z,76032
2018-05-31T08:47:50.415Z,76960
2018-05-31T08:48:51.169Z,76320
2018-05-31T08:49:51.915Z,76544
2018-05-31T08:50:52.657Z,74528
2018-05-31T08:51:53.410Z,71840
2018-05-31T08:52:54.152Z,75264
2018-05-31T08:53:54.894Z,75200
2018-05-31T08:54:55.670Z,72384
2018-05-31T08:55:56.385Z,75904
2018-05-31T08:56:57.131Z,81472
2018-05-31T08:57:57.884Z,78560
2018-05-31T08:58:58.626Z,79552
2018-05-31T08:59:59.369Z,74400
2018-05-31T09:01:00.112Z,77792
2018-05-31T09:02:00.892Z,86464
2018-05-31T09:03:01.592Z,78752
2018-05-31T09:04:02.336Z,75360
2018-05-31T09:05:03.080Z,78048
2018-05-31T09:06:03.849Z,74272
2018-05-31T09:07:04.596Z,81536
2018-05-31T09:08:05.342Z,72448
2018-05-31T09:09:06.115Z,71968
2018-05-31T09:10:06.856Z,70816
2018-05-31T09:11:07.609Z,71168
2018-05-31T09:12:08.353Z,69984
2018-05-31T09:13:09.140Z,68640
2018-05-31T09:14:09.876Z,73600
2018-05-31T09:15:10.650Z,78816
2018-05-31T09:16:11.360Z,76512
2018-05-31T09:17:12.100Z,66112
2018-05-31T09:18:12.869Z,77152
2018-05-31T09:19:13.656Z,81888
2018-05-31T09:20:14.408Z,43168
2018-05-31T09:21:15.147Z,22048
2018-05-31T09:22:15.939Z,68928
2018-05-31T09:23:16.735Z,77952
2018-05-31T09:24:17.584Z,71232
2018-05-31T09:25:18.324Z,41952
2018-05-31T09:26:19.070Z,18400
2018-05-31T09:27:19.812Z,15636
2018-05-31T09:28:20.563Z,15908
2018-05-31T09:29:21.306Z,27232
2018-05-31T09:30:22.047Z,24128
2018-05-31T09:31:22.787Z,16760
2018-05-31T09:32:23.538Z,14668
2018-05-31T09:33:24.279Z,13576
2018-05-31T09:34:25.030Z,13948
2018-05-31T09:35:25.768Z,18848
2018-05-31T09:36:26.511Z,71168
2018-05-31T09:37:27.253Z,82720
2018-05-31T09:38:27.991Z,82240
2018-05-31T09:39:28.731Z,78080
2018-05-31T09:40:29.477Z,51744
2018-05-31T09:41:30.229Z,76128
2018-05-31T09:42:30.971Z,59232
2018-05-31T09:43:31.713Z,19328
2018-05-31T09:44:32.466Z,15760
2018-05-31T09:45:33.204Z,19904
2018-05-31T09:46:33.966Z,76192
2018-05-31T09:47:34.687Z,75872
2018-05-31T09:48:35.431Z,82048
2018-05-31T09:49:36.174Z,81024
2018-05-31T09:50:36.909Z,81760
2018-05-31T09:51:37.649Z,81888
2018-05-31T09:52:38.392Z,84352
2018-05-31T09:53:39.134Z,77568
2018-05-31T09:54:39.873Z,77696
2018-05-31T09:55:40.616Z,81760
2018-05-31T09:56:41.366Z,80000
2018-05-31T09:57:42.119Z,83040
2018-05-31T09:58:42.873Z,84640
2018-05-31T09:59:43.627Z,84864
2018-05-31T10:00:44.368Z,80704
2018-05-31T10:01:45.111Z,86912
2018-05-31T10:02:45.866Z,88608
2018-05-31T10:03:46.612Z,83808
2018-05-31T10:04:47.359Z,89184
2018-05-31T10:05:48.102Z,90912
2018-05-31T10:06:48.845Z,91232
2018-05-31T10:07:49.593Z,73504
2018-05-31T10:08:50.339Z,84416
2018-05-31T10:09:51.090Z,88064
2018-05-31T10:10:51.841Z,87200
2018-05-31T10:11:52.584Z,84288
2018-05-31T10:12:53.323Z,48800
2018-05-31T10:13:54.076Z,75808
2018-05-31T10:14:54.818Z,73568
2018-05-31T10:15:55.569Z,21408
2018-05-31T10:16:56.310Z,42560
2018-05-31T10:17:57.051Z,64096
2018-05-31T10:18:57.792Z,69632
2018-05-31T10:19:58.534Z,64256
2018-05-31T10:20:59.286Z,69024
2018-05-31T10:22:00.030Z,72992
2018-05-31T10:23:00.765Z,16776
2018-05-31T10:24:01.506Z,14224
2018-05-31T10:25:02.247Z,13724
2018-05-31T10:26:02.983Z,13984
2018-05-31T10:27:03.728Z,14524
2018-05-31T10:28:04.481Z,14324
2018-05-31T10:29:05.224Z,13428
2018-05-31T10:30:05.967Z,13020
2018-05-31T10:31:06.705Z,13320
2018-05-31T10:32:07.444Z,14408
2018-05-31T10:33:08.236Z,13948
2018-05-31T10:34:09.020Z,13744
2018-05-31T10:35:09.773Z,15244
2018-05-31T10:36:10.505Z,25344
2018-05-31T10:37:11.248Z,74336
2018-05-31T10:38:11.987Z,67456
2018-05-31T10:39:12.725Z,94880
2018-05-31T10:40:13.466Z,91104
2018-05-31T10:41:14.207Z,91360
2018-05-31T10:42:14.947Z,84416
2018-05-31T10:43:15.690Z,89952
2018-05-31T10:44:16.430Z,92320
2018-05-31T10:45:17.177Z,89952
2018-05-31T10:46:17.963Z,91104
2018-05-31T10:47:18.655Z,94816
2018-05-31T10:48:19.395Z,91872
2018-05-31T10:49:20.140Z,94240
2018-05-31T10:50:20.878Z,94752
2018-05-31T10:51:21.623Z,58432
2018-05-31T10:52:22.353Z,49504
2018-05-31T10:53:23.099Z,20800
2018-05-31T10:54:23.831Z,21088
2018-05-31T10:55:24.572Z,26016
2018-05-31T10:56:25.311Z,34880
2018-05-31T10:57:26.064Z,48736
2018-05-31T10:58:26.815Z,85376
2018-05-31T10:59:27.560Z,85376
2018-05-31T11:00:28.301Z,87776
2018-05-31T11:01:29.043Z,64896
2018-05-31T11:02:29.792Z,41472
2018-05-31T11:03:30.531Z,83520
2018-05-31T11:04:31.268Z,81472
2018-05-31T11:05:32.008Z,83744
2018-05-31T11:06:32.759Z,13148
2018-05-31T11:07:33.496Z,10208
2018-05-31T11:08:34.241Z,9460
2018-05-31T11:09:34.992Z,9160
2018-05-31T11:10:35.730Z,9104
2018-05-31T11:11:36.469Z,9348
2018-05-31T11:12:37.207Z,9996
2018-05-31T11:13:37.956Z,10856
2018-05-31T11:14:38.706Z,11428
2018-05-31T11:15:39.458Z,12864
2018-05-31T11:16:40.194Z,14700
2018-05-31T11:17:40.943Z,17536
2018-05-31T11:18:41.679Z,20736
2018-05-31T11:19:42.430Z,41344
2018-05-31T11:20:43.179Z,88384
2018-05-31T11:21:43.952Z,88000
2018-05-31T11:22:44.712Z,91168
2018-05-31T11:23:45.455Z,88800
2018-05-31T11:24:46.195Z,85088
2018-05-31T11:25:46.938Z,77952
2018-05-31T11:26:47.680Z,84704
2018-05-31T11:27:48.419Z,85088
2018-05-31T11:28:49.163Z,85344
2018-05-31T11:29:49.901Z,88736
2018-05-31T11:30:50.642Z,88768
2018-05-31T11:31:51.380Z,84736
2018-05-31T11:32:52.122Z,83296
2018-05-31T11:33:52.860Z,64224
2018-05-31T11:34:53.598Z,9656
2018-05-31T11:35:54.347Z,9180
2018-05-31T11:36:55.082Z,9160
2018-05-31T11:37:55.819Z,9080
2018-05-31T11:38:56.553Z,8824
2018-05-31T11:39:57.293Z,8664
2018-05-31T11:40:58.042Z,8592
2018-05-31T11:41:58.778Z,8480
2018-05-31T11:42:59.517Z,8248
2018-05-31T11:44:00.254Z,7940
2018-05-31T11:45:00.991Z,7668
2018-05-31T11:46:01.729Z,7440
2018-05-31T11:47:02.476Z,7344
2018-05-31T11:48:03.217Z,7204
2018-05-31T11:49:03.955Z,6936
2018-05-31T11:50:04.695Z,6936
2018-05-31T11:51:05.435Z,7028
2018-05-31T11:52:06.185Z,7120
2018-05-31T11:53:06.931Z,7252
2018-05-31T11:54:07.665Z,7588
2018-05-31T11:55:08.409Z,8176
2018-05-31T11:56:09.206Z,8904
2018-05-31T11:57:09.936Z,9760
2018-05-31T11:58:10.681Z,10560
2018-05-31T11:59:11.416Z,11136
2018-05-31T12:00:12.146Z,11580
2018-05-31T12:01:12.877Z,12220
2018-05-31T12:02:13.609Z,13600
2018-05-31T12:03:14.353Z,18432
2018-05-31T12:04:15.094Z,45920
2018-05-31T12:05:15.828Z,80416
2018-05-31T12:06:16.571Z,45312
2018-05-31T12:07:17.307Z,15296
2018-05-31T12:08:18.152Z,13480
2018-05-31T12:09:18.782Z,12472
2018-05-31T12:10:19.515Z,12756
2018-05-31T12:11:20.246Z,13776
2018-05-31T12:12:20.980Z,12428
2018-05-31T12:13:21.708Z,12924
2018-05-31T12:14:22.438Z,13932
2018-05-31T12:15:23.169Z,15592
2018-05-31T12:16:23.910Z,20704
2018-05-31T12:17:24.694Z,33408
2018-05-31T12:18:25.405Z,82656
2018-05-31T12:19:26.140Z,84640
2018-05-31T12:20:26.882Z,84448
2018-05-31T12:21:27.618Z,81536
2018-05-31T12:22:28.361Z,84832
2018-05-31T12:23:29.113Z,63136
2018-05-31T12:24:29.850Z,90496
2018-05-31T12:25:30.618Z,87296
2018-05-31T12:26:31.338Z,85664
2018-05-31T12:27:32.076Z,87040
2018-05-31T12:28:32.815Z,83104
2018-05-31T12:29:33.556Z,80832
2018-05-31T12:30:34.295Z,82752
2018-05-31T12:31:35.037Z,78144
2018-05-31T12:32:35.777Z,74048
2018-05-31T12:33:36.517Z,20000
2018-05-31T12:34:37.257Z,12320
2018-05-31T12:35:38.007Z,11880
2018-05-31T12:36:38.756Z,12332
2018-05-31T12:37:39.544Z,13336
2018-05-31T12:38:40.237Z,16864
2018-05-31T12:39:40.974Z,32960
2018-05-31T12:40:41.712Z,72608
2018-05-31T12:41:42.451Z,76384
2018-05-31T12:42:43.191Z,69024
2018-05-31T12:43:43.942Z,68288
2018-05-31T12:44:44.693Z,16316
2018-05-31T12:45:45.438Z,14200
2018-05-31T12:46:46.183Z,12760
2018-05-31T12:47:46.928Z,17280
2018-05-31T12:48:47.670Z,11032
2018-05-31T12:49:48.419Z,9712
2018-05-31T12:50:49.161Z,9084
2018-05-31T12:51:49.906Z,8888
2018-05-31T12:52:50.659Z,8784
2018-05-31T12:53:51.404Z,8812
2018-05-31T12:54:52.139Z,8788
2018-05-31T12:55:52.872Z,8924
2018-05-31T12:56:53.620Z,9032
2018-05-31T12:57:54.360Z,9212
2018-05-31T12:58:55.092Z,9684
2018-05-31T12:59:55.831Z,10248
2018-05-31T13:00:56.572Z,11072
2018-05-31T13:01:57.315Z,13396
2018-05-31T13:02:58.048Z,19008
2018-05-31T13:03:58.784Z,10956
2018-05-31T13:04:59.530Z,10684
2018-05-31T13:06:00.335Z,10640
2018-05-31T13:07:01.012Z,11144
2018-05-31T13:08:01.742Z,13068
2018-05-31T13:09:02.489Z,13856
2018-05-31T13:10:03.222Z,13980
2018-05-31T13:11:03.969Z,33600
2018-05-31T13:12:04.697Z,33760
2018-05-31T13:13:05.442Z,27520
2018-05-31T13:14:06.196Z,29728
2018-05-31T13:15:06.935Z,26912
2018-05-31T13:16:07.669Z,22176
2018-05-31T13:17:08.415Z,14456
2018-05-31T13:18:09.157Z,17120
2018-05-31T13:19:09.890Z,22400
2018-05-31T13:20:10.621Z,25184
2018-05-31T13:21:11.368Z,12792
2018-05-31T13:22:12.109Z,16800
2018-05-31T13:23:12.840Z,31104
2018-05-31T13:24:13.570Z,11988
2018-05-31T13:25:14.353Z,10160
2018-05-31T13:26:15.035Z,19136
2018-05-31T13:27:15.777Z,8940
2018-05-31T13:28:16.507Z,9000
2018-05-31T13:29:17.234Z,9476
2018-05-31T13:30:17.969Z,11428
2018-05-31T13:31:18.717Z,8876
2018-05-31T13:32:19.444Z,8460
2018-05-31T13:33:20.178Z,8280
2018-05-31T13:34:20.903Z,8448
2018-05-31T13:35:21.631Z,10732
2018-05-31T13:36:22.360Z,7772
2018-05-31T13:37:23.090Z,10020
2018-05-31T13:38:23.820Z,9440
2018-05-31T13:39:24.560Z,9848
2018-05-31T13:40:25.275Z,7036